createdAt,value
2024-04-14T00:00:00.962Z,71.68
2024-04-14T00:02:27.762Z,71.48
2024-04-14T00:04:54.776Z,72.66
2024-04-14T00:07:23.154Z,72.95
2024-04-14T00:09:49.926Z,72.49
2024-04-14T00:12:16.775Z,72.79
2024-04-14T00:14:43.575Z,73.10
2024-04-14T00:17:10.372Z,73.01
2024-04-14T00:19:37.092Z,73.95
2024-04-14T00:22:04.303Z,74.24
2024-04-14T00:24:31.076Z,74.02
2024-04-14T00:26:57.898Z,75.30
2024-04-14T00:29:24.668Z,74.84
2024-04-14T00:31:51.460Z,75.26
2024-04-14T00:34:18.201Z,75.54
2024-04-14T00:36:45.039Z,76.69
2024-04-14T00:39:13.443Z,76.37
2024-04-14T00:41:41.151Z,75.75
2024-04-14T00:44:07.903Z,77.35
2024-04-14T00:46:34.741Z,77.69
2024-04-14T00:49:03.613Z,76.90
2024-04-14T00:51:30.718Z,77.03
2024-04-14T00:53:57.846Z,77.76
2024-04-14T00:56:24.965Z,78.00
2024-04-14T00:58:52.065Z,77.06
2024-04-14T01:01:20.913Z,78.05
2024-04-14T01:03:48.242Z,79.09
2024-04-14T01:06:15.090Z,78.20
2024-04-14T01:08:41.963Z,78.98
2024-04-14T01:11:09.017Z,78.89
2024-04-14T01:13:35.779Z,78.65
2024-04-14T01:16:02.652Z,79.21
2024-04-14T01:18:29.737Z,79.12
2024-04-14T01:20:56.527Z,78.78
2024-04-14T01:23:24.085Z,78.36
2024-04-14T01:25:50.842Z,78.49
2024-04-14T01:28:18.220Z,79.94
2024-04-14T01:30:45.330Z,78.72
2024-04-14T01:33:12.192Z,79.10
2024-04-14T01:35:39.424Z,79.30
2024-04-14T01:38:16.061Z,80.00
2024-04-14T01:40:48.943Z,79.93
2024-04-14T01:43:15.882Z,80.73
2024-04-14T01:45:42.599Z,80.26
2024-04-14T01:48:10.627Z,81.12
2024-04-14T01:50:38.766Z,81.36
2024-04-14T01:53:05.617Z,80.76
2024-04-14T01:55:32.371Z,81.06
2024-04-14T01:58:00.764Z,82.38
2024-04-14T02:00:28.107Z,81.94
2024-04-14T02:02:57.517Z,81.87
2024-04-14T02:05:24.495Z,81.31
2024-04-14T02:07:51.231Z,82.71
2024-04-14T02:10:18.027Z,82.63
2024-04-14T02:12:44.909Z,81.87
2024-04-14T02:15:11.804Z,82.53
2024-04-14T02:17:38.879Z,83.07
2024-04-14T02:20:06.201Z,82.85
2024-04-14T02:22:32.947Z,82.67
2024-04-14T02:24:59.794Z,82.35
2024-04-14T02:27:26.672Z,82.39
2024-04-14T02:29:53.442Z,82.39
2024-04-14T02:32:20.314Z,81.64
2024-04-14T02:34:47.426Z,82.21
2024-04-14T02:37:14.237Z,82.66
2024-04-14T02:39:41.033Z,82.40
2024-04-14T02:42:07.842Z,81.64
2024-04-14T02:44:34.607Z,82.86
2024-04-14T02:47:01.419Z,82.54
2024-04-14T02:49:30.052Z,82.45
2024-04-14T02:51:57.603Z,83.52
2024-04-14T02:54:25.041Z,83.34
2024-04-14T02:56:52.091Z,84.57
2024-04-14T02:59:18.989Z,83.50
2024-04-14T03:01:47.207Z,83.54
2024-04-14T03:04:14.154Z,84.06
2024-04-14T03:06:41.084Z,84.07
2024-04-14T03:09:07.883Z,83.77
2024-04-14T03:11:34.725Z,83.74
2024-04-14T03:14:01.753Z,84.69
2024-04-14T03:16:28.642Z,85.29
2024-04-14T03:18:55.542Z,84.82
2024-04-14T03:21:24.423Z,85.06
2024-04-14T03:23:51.744Z,85.19
2024-04-14T03:26:18.736Z,85.81
2024-04-14T03:28:45.475Z,85.19
2024-04-14T03:31:12.545Z,86.52
2024-04-14T03:33:39.508Z,86.27
2024-04-14T03:36:08.191Z,86.04
2024-04-14T03:38:35.736Z,86.71
2024-04-14T03:41:04.138Z,86.95
2024-04-14T03:43:31.071Z,87.49
2024-04-14T03:45:58.362Z,88.21
2024-04-14T03:48:25.712Z,87.83
2024-04-14T03:50:52.615Z,89.03
2024-04-14T03:53:19.362Z,90.03
2024-04-14T03:55:46.212Z,89.49
2024-04-14T03:58:12.991Z,89.31
2024-04-14T04:00:40.049Z,89.38
2024-04-14T04:03:07.592Z,88.83
2024-04-14T04:05:34.449Z,89.86
2024-04-14T04:08:02.607Z,89.87
2024-04-14T04:10:30.710Z,89.89
2024-04-14T04:12:57.507Z,90.23
2024-04-14T04:15:24.365Z,90.92
2024-04-14T04:17:51.293Z,90.28
2024-04-14T04:20:18.085Z,90.63
2024-04-14T04:22:44.948Z,89.66
2024-04-14T04:25:14.591Z,88.06
2024-04-14T04:27:41.329Z,88.24
2024-04-14T04:30:08.682Z,88.55
2024-04-14T04:32:38.188Z,88.43
2024-04-14T04:35:06.519Z,88.42
2024-04-14T04:37:33.291Z,88.46
2024-04-14T04:40:00.151Z,88.96
2024-04-14T04:42:27.005Z,88.55
2024-04-14T04:44:53.733Z,88.41
2024-04-14T04:47:20.705Z,87.99
2024-04-14T04:49:49.401Z,88.16
2024-04-14T04:52:16.169Z,88.84
2024-04-14T04:54:42.999Z,88.17
2024-04-14T04:57:09.793Z,87.61
2024-04-14T04:59:36.576Z,87.69
2024-04-14T05:02:03.353Z,87.48
2024-04-14T05:04:30.406Z,87.58
2024-04-14T05:09:41.322Z,86.52
2024-04-14T05:12:08.121Z,86.17
2024-04-14T05:14:34.883Z,87.23
2024-04-14T05:17:01.677Z,87.19
2024-04-14T05:19:28.521Z,87.35
2024-04-14T05:21:55.433Z,87.07
2024-04-14T05:24:22.519Z,86.54
2024-04-14T05:26:49.419Z,86.65
2024-04-14T05:29:16.169Z,85.94
2024-04-14T05:31:42.984Z,86.29
2024-04-14T05:34:09.752Z,86.07
2024-04-14T05:36:36.664Z,86.07
2024-04-14T05:39:03.536Z,85.66
2024-04-14T05:41:31.549Z,85.98
2024-04-14T05:43:58.276Z,85.42
2024-04-14T05:46:25.069Z,83.98
2024-04-14T05:48:51.911Z,82.76
2024-04-14T05:51:38.521Z,82.47
2024-04-14T05:54:05.434Z,82.16
2024-04-14T05:56:32.154Z,80.29
2024-04-14T05:58:58.909Z,79.93
2024-04-14T06:01:25.727Z,77.09
2024-04-14T06:03:52.567Z,75.78
2024-04-14T06:06:19.309Z,75.78
2024-04-14T06:08:46.079Z,74.59
2024-04-14T06:11:12.938Z,74.64
2024-04-14T06:13:39.848Z,72.83
2024-04-14T06:16:06.974Z,71.53
2024-04-14T06:18:34.982Z,71.63
2024-04-14T06:21:01.799Z,68.84
2024-04-14T06:23:28.527Z,68.89
2024-04-14T06:25:55.991Z,68.17
2024-04-14T06:28:22.760Z,68.49
2024-04-14T06:30:49.654Z,68.86
2024-04-14T06:33:16.604Z,69.05
2024-04-14T06:35:43.349Z,68.30
2024-04-14T06:38:10.564Z,68.49
2024-04-14T06:40:37.300Z,67.60
2024-04-14T06:43:04.663Z,66.69
2024-04-14T06:45:31.633Z,66.05
2024-04-14T06:47:58.538Z,65.80
2024-04-14T06:50:25.492Z,65.06
2024-04-14T06:52:52.285Z,63.54
2024-04-14T06:55:20.328Z,63.88
2024-04-14T06:57:47.414Z,64.44
2024-04-14T07:00:14.473Z,63.85
2024-04-14T07:02:41.331Z,64.29
2024-04-14T07:05:08.134Z,63.13
2024-04-14T07:07:36.805Z,63.35
2024-04-14T07:10:04.048Z,62.12
2024-04-14T07:12:30.882Z,63.09
2024-04-14T07:14:57.828Z,62.48
2024-04-14T07:17:24.584Z,62.34
2024-04-14T07:19:51.384Z,63.09
2024-04-14T07:22:18.177Z,62.83
2024-04-14T07:24:45.110Z,63.28
2024-04-14T07:27:11.980Z,61.82
2024-04-14T07:29:39.921Z,62.27
2024-04-14T07:32:07.620Z,61.70
2024-04-14T07:34:34.449Z,61.30
2024-04-14T07:37:04.105Z,61.52
2024-04-14T07:39:32.432Z,61.05
2024-04-14T07:42:03.482Z,61.16
2024-04-14T07:44:30.300Z,61.82
2024-04-14T07:47:00.127Z,60.45
2024-04-14T07:49:26.977Z,59.58
2024-04-14T07:51:53.894Z,58.55
2024-04-14T07:54:20.647Z,58.00
2024-04-14T07:56:47.425Z,57.69
2024-04-14T07:59:14.208Z,58.48
2024-04-14T08:01:41.024Z,56.03
2024-04-14T08:04:08.134Z,56.86
2024-04-14T08:06:35.154Z,57.96
2024-04-14T08:09:01.983Z,56.18
2024-04-14T08:11:28.803Z,57.09
2024-04-14T08:13:56.926Z,57.53
2024-04-14T08:16:23.753Z,57.48
2024-04-14T08:18:50.616Z,57.56
2024-04-14T08:21:17.497Z,57.16
2024-04-14T08:23:44.243Z,56.69
2024-04-14T08:26:10.994Z,57.30
2024-04-14T08:28:37.768Z,57.24
2024-04-14T08:31:04.833Z,57.53
2024-04-14T08:33:31.684Z,57.74
2024-04-14T08:35:58.501Z,58.83
2024-04-14T08:38:25.425Z,58.08
2024-04-14T08:40:53.703Z,58.42
2024-04-14T08:43:21.189Z,56.90
2024-04-14T08:45:49.077Z,57.43
2024-04-14T08:48:18.114Z,57.66
2024-04-14T08:50:46.074Z,56.85
2024-04-14T08:53:15.888Z,56.30
2024-04-14T08:55:48.005Z,57.99
2024-04-14T08:58:16.886Z,58.11
2024-04-14T09:00:48.000Z,56.08
2024-04-14T09:03:14.943Z,57.10
2024-04-14T09:05:43.881Z,57.37
2024-04-14T09:08:10.671Z,56.94
2024-04-14T09:10:37.484Z,57.22
2024-04-14T09:13:08.932Z,56.22
2024-04-14T09:15:41.694Z,55.60
2024-04-14T09:18:08.609Z,55.03
2024-04-14T09:20:35.388Z,55.46
2024-04-14T09:23:03.200Z,55.43
2024-04-14T09:25:30.290Z,55.57
2024-04-14T09:28:04.623Z,57.03
2024-04-14T09:30:31.551Z,56.52
2024-04-14T09:32:58.914Z,54.97
2024-04-14T09:35:26.445Z,55.93
2024-04-14T09:37:53.840Z,55.30
2024-04-14T09:40:20.754Z,55.53
2024-04-14T09:42:47.819Z,55.22
2024-04-14T09:45:16.898Z,55.42
2024-04-14T09:47:45.135Z,54.69
2024-04-14T09:50:12.139Z,55.01
2024-04-14T09:52:43.342Z,53.90
2024-04-14T09:55:11.044Z,55.06
2024-04-14T09:57:38.001Z,55.28
2024-04-14T10:00:05.956Z,54.83
2024-04-14T10:02:36.411Z,55.31
2024-04-14T10:05:05.022Z,55.63
2024-04-14T10:07:32.002Z,54.71
2024-04-14T10:10:00.567Z,54.75
2024-04-14T10:12:27.550Z,53.95
2024-04-14T10:14:55.773Z,54.71
2024-04-14T10:17:22.740Z,53.98
2024-04-14T10:19:56.442Z,52.78
2024-04-14T10:22:36.155Z,51.95
2024-04-14T10:25:03.474Z,51.49
2024-04-14T10:27:35.765Z,50.92
2024-04-14T10:30:05.408Z,50.31
2024-04-14T10:32:32.237Z,48.85
2024-04-14T10:34:59.113Z,48.40
2024-04-14T10:37:27.492Z,48.92
2024-04-14T10:39:56.098Z,48.60
2024-04-14T10:42:25.984Z,48.16
2024-04-14T10:44:53.368Z,49.12
2024-04-14T10:47:20.634Z,48.36
2024-04-14T10:49:51.332Z,49.24
2024-04-14T10:52:18.574Z,48.12
2024-04-14T10:54:45.969Z,48.23
2024-04-14T10:57:13.335Z,48.19
2024-04-14T10:59:40.337Z,47.92
2024-04-14T11:02:09.178Z,47.85
2024-04-14T11:04:37.238Z,47.30
2024-04-14T11:07:04.739Z,47.69
2024-04-14T11:09:32.973Z,47.85
2024-04-14T11:12:00.640Z,46.50
2024-04-14T11:14:27.649Z,46.23
2024-04-14T11:16:54.657Z,47.26
2024-04-14T11:19:22.067Z,47.01
2024-04-14T11:21:50.186Z,47.38
2024-04-14T11:24:17.096Z,46.86
2024-04-14T11:26:43.954Z,46.58
2024-04-14T11:29:11.389Z,45.45
2024-04-14T11:31:38.677Z,45.52
2024-04-14T11:34:12.127Z,45.87
2024-04-14T11:36:42.485Z,46.25
2024-04-14T11:39:09.588Z,46.70
2024-04-14T11:41:36.667Z,45.68
2024-04-14T11:44:03.531Z,45.93
2024-04-14T11:46:30.485Z,46.18
2024-04-14T11:48:57.334Z,45.67
2024-04-14T11:51:24.321Z,44.76
2024-04-14T11:53:51.158Z,43.28
2024-04-14T11:56:17.995Z,44.16
2024-04-14T11:58:44.760Z,43.52
2024-04-14T12:01:11.911Z,44.34
2024-04-14T12:03:38.751Z,43.55
2024-04-14T12:06:08.412Z,43.72
2024-04-14T12:08:36.434Z,44.34
2024-04-14T12:11:03.274Z,44.00
2024-04-14T12:13:30.752Z,44.33
2024-04-14T12:15:58.303Z,42.47
2024-04-14T12:18:25.225Z,42.30
2024-04-14T12:20:52.548Z,42.29
2024-04-14T12:23:19.363Z,42.11
2024-04-14T12:25:46.266Z,41.15
2024-04-14T12:28:13.204Z,41.54
2024-04-14T12:30:46.022Z,41.68
2024-04-14T12:33:18.251Z,41.20
2024-04-14T12:35:45.074Z,40.19
2024-04-14T12:38:11.864Z,40.70
2024-04-14T12:40:38.830Z,40.59
2024-04-14T12:43:05.677Z,39.97
2024-04-14T12:45:33.991Z,39.45
2024-04-14T12:48:01.343Z,39.58
2024-04-14T12:50:32.945Z,40.05
2024-04-14T12:53:07.121Z,40.80
2024-04-14T12:55:34.071Z,40.45
2024-04-14T12:58:00.934Z,39.79
2024-04-14T13:00:27.763Z,41.15
2024-04-14T13:02:54.508Z,38.96
2024-04-14T13:05:21.280Z,39.55
2024-04-14T13:07:48.119Z,40.57
2024-04-14T13:10:14.970Z,40.38
2024-04-14T13:12:41.812Z,40.13
2024-04-14T13:15:11.441Z,40.51
2024-04-14T13:17:39.397Z,40.55
2024-04-14T13:20:11.217Z,40.96
2024-04-14T13:22:38.813Z,40.26
2024-04-14T13:25:08.503Z,41.22
2024-04-14T13:27:35.369Z,41.31
2024-04-14T13:30:02.280Z,40.94
2024-04-14T13:32:29.111Z,39.81
2024-04-14T13:34:56.004Z,41.38
2024-04-14T13:37:22.820Z,40.84
2024-04-14T13:39:49.641Z,39.21
2024-04-14T13:42:17.030Z,39.01
2024-04-14T13:44:44.447Z,38.78
2024-04-14T13:47:11.466Z,39.46
2024-04-14T13:49:38.505Z,39.57
2024-04-14T13:52:05.684Z,39.87
2024-04-14T13:54:33.767Z,39.02
2024-04-14T13:57:01.189Z,40.19
2024-04-14T13:59:28.008Z,40.89
2024-04-14T14:01:54.976Z,39.70
2024-04-14T14:04:21.936Z,41.07
2024-04-14T14:06:48.774Z,39.67
2024-04-14T14:09:16.188Z,40.56
2024-04-14T14:11:43.025Z,41.05
2024-04-14T14:14:09.911Z,41.03
2024-04-14T14:16:36.954Z,41.56
2024-04-14T14:19:04.123Z,40.88
2024-04-14T14:21:30.968Z,40.76
2024-04-14T14:23:57.915Z,41.15
2024-04-14T14:26:24.930Z,41.22
2024-04-14T14:28:51.875Z,41.13
2024-04-14T14:31:18.719Z,42.21
2024-04-14T14:34:04.072Z,41.51
2024-04-14T14:36:31.724Z,42.38
2024-04-14T14:38:59.117Z,42.43
2024-04-14T14:41:27.090Z,42.32
2024-04-14T14:43:55.047Z,41.92
2024-04-14T14:46:24.819Z,41.70
2024-04-14T14:48:54.212Z,41.57
2024-04-14T14:51:21.512Z,41.89
2024-04-14T14:53:48.687Z,42.03
2024-04-14T14:56:15.415Z,41.70
2024-04-14T14:58:42.201Z,42.03
2024-04-14T15:01:09.094Z,41.95
2024-04-14T15:03:37.647Z,43.03
2024-04-14T15:06:04.834Z,43.47
2024-04-14T15:08:31.635Z,43.72
2024-04-14T15:10:58.458Z,44.10
2024-04-14T15:13:25.352Z,44.42
2024-04-14T15:15:56.674Z,43.69
2024-04-14T15:18:24.730Z,43.83
2024-04-14T15:20:51.553Z,43.57
2024-04-14T15:23:18.340Z,43.70
2024-04-14T15:25:45.170Z,44.39
2024-04-14T15:28:18.811Z,44.84
2024-04-14T15:30:49.826Z,44.58
2024-04-14T15:33:17.138Z,44.56
2024-04-14T15:35:44.798Z,44.74
2024-04-14T15:38:12.876Z,45.31
2024-04-14T15:40:39.682Z,45.09
2024-04-14T15:43:06.462Z,45.47
2024-04-14T15:45:33.438Z,45.42
2024-04-14T15:48:00.999Z,45.28
2024-04-14T15:50:27.921Z,45.52
2024-04-14T15:52:54.664Z,45.99
2024-04-14T15:55:21.415Z,46.65
2024-04-14T15:57:48.535Z,45.38
2024-04-14T16:00:15.409Z,45.60
2024-04-14T16:02:42.717Z,45.92
2024-04-14T16:05:09.771Z,45.55
2024-04-14T16:07:36.703Z,45.67
2024-04-14T16:10:04.094Z,46.39
2024-04-14T16:12:31.110Z,46.76
2024-04-14T16:14:58.076Z,46.37
2024-04-14T16:17:24.841Z,46.36
2024-04-14T16:19:51.687Z,46.57
2024-04-14T16:22:18.550Z,46.00
2024-04-14T16:24:45.493Z,46.50
2024-04-14T16:27:14.309Z,46.76
2024-04-14T16:29:41.145Z,46.65
2024-04-14T16:32:07.921Z,46.77
2024-04-14T16:34:34.834Z,46.82
2024-04-14T16:37:01.604Z,46.53
2024-04-14T16:39:28.358Z,46.45
2024-04-14T16:41:55.278Z,47.37
2024-04-14T16:44:22.078Z,46.84
2024-04-14T16:46:48.986Z,46.83
2024-04-14T16:49:15.805Z,47.04
2024-04-14T16:51:44.148Z,46.92
2024-04-14T16:54:10.960Z,46.71
2024-04-14T16:56:37.720Z,47.16
2024-04-14T16:59:04.490Z,46.85
2024-04-14T17:01:31.332Z,47.08
2024-04-14T17:03:59.149Z,47.21
2024-04-14T17:06:25.961Z,47.76
2024-04-14T17:08:54.757Z,47.19
2024-04-14T17:11:21.564Z,47.96
2024-04-14T17:13:48.389Z,48.09
2024-04-14T17:16:15.247Z,47.87
2024-04-14T17:18:42.329Z,48.40
2024-04-14T17:21:10.036Z,47.92
2024-04-14T17:23:36.865Z,48.37
2024-04-14T17:26:03.949Z,48.40
2024-04-14T17:28:30.746Z,48.74
2024-04-14T17:30:58.084Z,49.52
2024-04-14T17:33:24.971Z,49.46
2024-04-14T17:35:51.834Z,49.08
2024-04-14T17:38:18.639Z,49.20
2024-04-14T17:40:45.430Z,49.48
2024-04-14T17:43:12.366Z,49.62
2024-04-14T17:45:39.250Z,49.72
2024-04-14T17:48:06.593Z,50.15
2024-04-14T17:50:33.710Z,49.76
2024-04-14T17:53:00.614Z,50.51
2024-04-14T17:55:27.431Z,50.27
2024-04-14T17:57:54.338Z,51.00
2024-04-14T18:00:21.165Z,51.23
2024-04-14T18:02:47.977Z,51.06
2024-04-14T18:05:14.834Z,50.88
2024-04-14T18:07:41.593Z,50.59
2024-04-14T18:10:08.581Z,51.28
2024-04-14T18:12:35.701Z,50.90
2024-04-14T18:15:02.544Z,50.54
2024-04-14T18:17:29.427Z,51.07
2024-04-14T18:19:56.358Z,51.04
2024-04-14T18:22:23.304Z,51.85
2024-04-14T18:24:51.233Z,52.23
2024-04-14T18:27:18.290Z,52.83
2024-04-14T18:29:48.263Z,53.29
2024-04-14T18:32:15.155Z,53.04
2024-04-14T18:34:41.900Z,53.52
2024-04-14T18:37:08.972Z,53.45
2024-04-14T18:39:36.098Z,53.22
2024-04-14T18:42:03.002Z,53.44
2024-04-14T18:44:29.830Z,53.46
2024-04-14T18:46:57.563Z,53.94
2024-04-14T18:49:24.366Z,53.67
2024-04-14T18:51:51.368Z,53.64
2024-04-14T18:54:18.348Z,53.60
2024-04-14T18:56:46.915Z,54.43
2024-04-14T18:59:13.729Z,54.25
2024-04-14T19:01:40.685Z,54.35
2024-04-14T19:04:07.696Z,54.52
2024-04-14T19:06:34.574Z,54.81
2024-04-14T19:09:01.378Z,54.88
2024-04-14T19:11:28.212Z,55.44
2024-04-14T19:13:56.397Z,55.24
2024-04-14T19:16:25.160Z,55.85
2024-04-14T19:18:53.927Z,56.04
2024-04-14T19:21:20.719Z,56.48
2024-04-14T19:23:47.627Z,56.11
2024-04-14T19:26:14.749Z,56.49
2024-04-14T19:28:41.573Z,56.77
2024-04-14T19:31:08.455Z,57.17
2024-04-14T19:33:35.296Z,57.16
2024-04-14T19:36:02.321Z,58.39
2024-04-14T19:38:30.651Z,58.82
2024-04-14T19:40:58.087Z,58.89
2024-04-14T19:43:25.138Z,58.99
2024-04-14T19:45:52.653Z,58.53
2024-04-14T19:48:19.737Z,58.66
2024-04-14T19:50:46.650Z,58.12
2024-04-14T19:53:13.537Z,58.65
2024-04-14T19:55:41.305Z,58.08
2024-04-14T19:58:08.405Z,58.73
2024-04-14T20:00:36.294Z,58.26
2024-04-14T20:03:04.005Z,58.28
2024-04-14T20:05:30.826Z,58.98
2024-04-14T20:07:57.658Z,59.18
2024-04-14T20:10:25.220Z,59.31
2024-04-14T20:12:52.063Z,58.65
2024-04-14T20:15:21.236Z,59.40
2024-04-14T20:17:48.235Z,59.19
2024-04-14T20:20:15.162Z,59.19
2024-04-14T20:22:42.946Z,60.89
2024-04-14T20:25:09.922Z,59.62
2024-04-14T20:27:36.969Z,59.78
2024-04-14T20:30:04.983Z,60.18
2024-04-14T20:32:31.910Z,60.02
2024-04-14T20:34:58.808Z,60.85
2024-04-14T20:37:25.620Z,60.87
2024-04-14T20:39:52.434Z,60.35
2024-04-14T20:42:20.408Z,60.99
2024-04-14T20:44:47.381Z,61.63
2024-04-14T20:47:15.599Z,61.21
2024-04-14T20:49:43.463Z,61.48
2024-04-14T20:52:11.030Z,61.33
2024-04-14T20:54:37.884Z,61.63
2024-04-14T20:57:04.850Z,60.85
2024-04-14T20:59:31.649Z,61.14
2024-04-14T21:01:58.684Z,61.08
2024-04-14T21:04:30.295Z,61.04
2024-04-14T21:07:02.430Z,61.57
2024-04-14T21:09:29.202Z,61.69
2024-04-14T21:11:56.034Z,61.60
2024-04-14T21:14:22.771Z,62.05
2024-04-14T21:16:49.612Z,62.76
2024-04-14T21:19:16.474Z,63.04
2024-04-14T21:21:44.169Z,64.24
2024-04-14T21:24:10.902Z,64.10
2024-04-14T21:26:37.763Z,64.25
2024-04-14T21:29:04.532Z,64.17
2024-04-14T21:31:31.606Z,64.48
2024-04-14T21:33:58.452Z,65.24
2024-04-14T21:36:25.342Z,65.08
2024-04-14T21:38:52.312Z,65.50
2024-04-14T21:41:20.650Z,65.24
2024-04-14T21:43:47.474Z,66.58
2024-04-14T21:46:14.354Z,66.91
2024-04-14T21:48:41.350Z,66.75
2024-04-14T21:51:11.708Z,66.28
2024-04-14T21:53:40.774Z,67.05
2024-04-14T21:56:07.675Z,66.39
2024-04-14T21:58:36.538Z,66.48
2024-04-14T22:01:12.558Z,66.94
2024-04-14T22:03:39.771Z,68.99
2024-04-14T22:06:06.632Z,68.74
2024-04-14T22:08:33.415Z,67.41
2024-04-14T22:11:00.733Z,67.72
2024-04-14T22:13:30.143Z,66.72
2024-04-14T22:15:57.086Z,66.51
2024-04-14T22:18:24.143Z,66.48
2024-04-14T22:20:50.923Z,67.95
2024-04-14T22:23:17.795Z,66.71
2024-04-14T22:25:44.650Z,67.02
2024-04-14T22:28:12.101Z,66.29
2024-04-14T22:30:39.306Z,66.60
2024-04-14T22:33:08.329Z,66.07
2024-04-14T22:35:35.131Z,66.27
2024-04-14T22:38:02.656Z,66.12
2024-04-14T22:40:30.165Z,65.98
2024-04-14T22:42:57.658Z,68.40
2024-04-14T22:45:24.637Z,69.78
2024-04-14T22:47:51.760Z,69.83
2024-04-14T22:50:18.766Z,70.30
2024-04-14T22:52:45.580Z,74.69
2024-04-14T22:55:12.400Z,75.43
2024-04-14T22:57:39.293Z,76.87
2024-04-14T23:00:12.999Z,76.65
2024-04-14T23:02:40.081Z,78.83
2024-04-14T23:05:27.728Z,80.53
2024-04-14T23:07:54.545Z,80.86
2024-04-14T23:10:21.446Z,82.36
2024-04-14T23:12:48.283Z,82.21
2024-04-14T23:15:15.166Z,82.61
2024-04-14T23:17:42.058Z,83.57
2024-04-14T23:20:09.203Z,83.89
2024-04-14T23:22:35.926Z,85.02
2024-04-14T23:25:02.762Z,85.58
2024-04-14T23:27:29.540Z,90.72
2024-04-14T23:29:56.282Z,89.92
2024-04-14T23:32:23.177Z,91.57
2024-04-14T23:34:49.952Z,91.47
2024-04-14T23:37:16.806Z,90.68
2024-04-14T23:39:43.581Z,92.41
2024-04-14T23:42:10.363Z,91.41
2024-04-14T23:44:37.116Z,91.43
2024-04-14T23:47:04.104Z,91.67
2024-04-14T23:49:30.857Z,90.74
2024-04-14T23:51:57.725Z,90.67
2024-04-14T23:54:25.413Z,89.92
2024-04-14T23:56:55.159Z,90.43
2024-04-14T23:59:22.057Z,91.26
